Time;durP1;ratioP1;P1;durP2;ratioP2;P2;SDS_P1;SDS_P2;PMS_P1;PMS_P2;Temp;Humidity;BMP_temperature;BMP_pressure;BME280_temperature;BME280_humidity;BME280_pressure;Samples;Min_cycle;Max_cycle;Signal;HPM_P1;HPM_P2
2022/10/05 00:01:55;;;;;;;23.23;7.10;;;;;;;;;;5033834;28;20127;-78
2022/10/05 00:04:22;;;;;;;17.45;7.15;;;;;;;;;;5033951;28;20120;-78
2022/10/05 00:07:01;;;;;;;13.95;6.88;;;;;;;;;;5033671;28;20022;-76
2022/10/05 00:09:29;;;;;;;13.55;6.75;;;;;;;;;;5033686;28;20079;-76
2022/10/05 00:11:55;;;;;;;17.52;6.88;;;;;;;;;;5015749;28;20025;-77
2022/10/05 00:14:25;;;;;;;16.10;6.95;;;;;;;;;;5033452;28;20317;-76
2022/10/05 00:16:51;;;;;;;17.42;6.97;;;;;;;;;;5033447;28;20116;-76
2022/10/05 00:19:36;;;;;;;15.68;7.25;;;;;;;;;;5015830;28;20135;-76
2022/10/05 00:22:10;;;;;;;16.02;6.80;;;;;;;;;;5034118;28;20036;-76
2022/10/05 00:24:36;;;;;;;13.70;6.93;;;;;;;;;;5056791;23;20056;-75
2022/10/05 00:27:12;;;;;;;16.30;6.68;;;;;;;;;;5033798;28;20045;-76
2022/10/05 00:29:38;;;;;;;23.05;8.18;;;;;;;;;;5033896;28;20418;-75
2022/10/05 00:32:04;;;;;;;17.60;7.68;;;;;;;;;;5034572;28;20029;-74
2022/10/05 00:34:33;;;;;;;17.63;7.32;;;;;;;;;;5032721;28;20025;-74
2022/10/05 00:36:59;;;;;;;14.40;7.35;;;;;;;;;;5033411;28;20367;-73
2022/10/05 00:39:25;;;;;;;18.33;8.25;;;;;;;;;;5033760;28;20075;-73
2022/10/05 00:42:06;;;;;;;22.67;8.38;;;;;;;;;;5033632;28;20029;-75
2022/10/05 00:44:38;;;;;;;18.52;7.22;;;;;;;;;;5033617;28;20140;-75
2022/10/05 00:47:04;;;;;;;18.33;7.10;;;;;;;;;;5033237;28;20026;-75
2022/10/05 00:49:36;;;;;;;19.98;7.32;;;;;;;;;;5016295;28;20177;-73
2022/10/05 00:52:22;;;;;;;20.25;7.32;;;;;;;;;;5034893;28;20033;-75
2022/10/05 00:54:54;;;;;;;22.92;7.57;;;;;;;;;;5033419;28;20127;-74
2022/10/05 00:57:30;;;;;;;20.27;8.32;;;;;;;;;;5015470;28;20030;-74
2022/10/05 01:00:03;;;;;;;15.27;7.60;;;;;;;;;;5033491;28;20029;-72
2022/10/05 01:02:49;;;;;;;24.27;7.47;;;;;;;;;;5033122;28;20049;-75
2022/10/05 01:05:23;;;;;;;17.80;7.65;;;;;;;;;;5032698;28;20059;-75
2022/10/05 01:07:55;;;;;;;17.33;7.70;;;;;;;;;;5015905;28;20029;-74
2022/10/05 01:10:38;;;;;;;19.30;8.07;;;;;;;;;;5033479;28;20105;-73
2022/10/05 01:13:10;;;;;;;15.75;7.35;;;;;;;;;;5033358;28;20052;-73
2022/10/05 01:15:42;;;;;;;19.65;7.60;;;;;;;;;;5032705;28;20037;-73
2022/10/05 01:18:16;;;;;;;23.13;7.50;;;;;;;;;;5015160;28;20025;-73
2022/10/05 01:20:45;;;;;;;16.40;6.80;;;;;;;;;;5033164;28;20155;-73
2022/10/05 01:23:17;;;;;;;20.42;7.05;;;;;;;;;;5032832;28;20078;-72
2022/10/05 01:25:56;;;;;;;23.42;7.30;;;;;;;;;;5032674;28;20069;-75
2022/10/05 01:28:27;;;;;;;20.85;7.53;;;;;;;;;;5015371;28;20049;-75
2022/10/05 01:31:01;;;;;;;17.70;7.75;;;;;;;;;;5032734;28;20086;-73
2022/10/05 01:33:37;;;;;;;21.30;8.47;;;;;;;;;;5032562;28;20036;-76
2022/10/05 01:36:18;;;;;;;25.48;8.32;;;;;;;;;;5032422;28;20061;-73
2022/10/05 01:38:51;;;;;;;22.67;7.38;;;;;;;;;;5015055;28;20479;-74
2022/10/05 01:41:33;;;;;;;21.80;8.27;;;;;;;;;;5032342;28;20021;-75
2022/10/05 01:44:02;;;;;;;19.50;8.32;;;;;;;;;;5032542;28;20018;-74
2022/10/05 01:46:28;;;;;;;19.55;7.75;;;;;;;;;;5032604;28;20038;-75
2022/10/05 01:48:54;;;;;;;20.42;8.63;;;;;;;;;;5032576;28;20025;-72
2022/10/05 01:51:30;;;;;;;20.35;8.48;;;;;;;;;;5018045;28;20508;-77
2022/10/05 01:53:56;;;;;;;18.23;7.43;;;;;;;;;;5018423;28;20027;-77
2022/10/05 01:56:22;;;;;;;19.85;7.95;;;;;;;;;;5035169;28;20029;-75
2022/10/05 01:58:57;;;;;;;23.23;8.32;;;;;;;;;;5041083;28;20397;-77
2022/10/05 02:01:37;;;;;;;16.10;7.75;;;;;;;;;;5039528;28;20029;-76
2022/10/05 02:04:08;;;;;;;16.73;7.88;;;;;;;;;;5041043;28;20053;-77
2022/10/05 02:06:40;;;;;;;28.45;9.35;;;;;;;;;;5023826;28;20517;-76
2022/10/05 02:09:14;;;;;;;18.92;7.88;;;;;;;;;;5043259;28;20060;-76
2022/10/05 02:11:40;;;;;;;22.13;7.70;;;;;;;;;;5041804;28;20076;-78
2022/10/05 02:14:11;;;;;;;17.08;7.97;;;;;;;;;;5037825;28;20049;-79
2022/10/05 02:16:39;;;;;;;24.23;8.15;;;;;;;;;;5038004;28;20037;-78
2022/10/05 02:19:13;;;;;;;21.42;8.20;;;;;;;;;;5037268;28;20111;-78
2022/10/05 02:21:39;;;;;;;21.73;8.05;;;;;;;;;;5038950;28;20096;-78
2022/10/05 02:24:15;;;;;;;16.13;8.32;;;;;;;;;;5043375;28;20056;-77
2022/10/05 02:26:41;;;;;;;19.42;8.07;;;;;;;;;;5037460;28;20042;-77
2022/10/05 02:29:09;;;;;;;21.52;8.15;;;;;;;;;;5035695;28;20029;-77
2022/10/05 02:31:34;;;;;;;20.95;8.02;;;;;;;;;;5018293;28;20030;-76
2022/10/05 02:34:20;;;;;;;20.33;8.68;;;;;;;;;;5037610;28;20489;-76
2022/10/05 02:36:49;;;;;;;19.50;7.63;;;;;;;;;;5041770;28;20028;-75
2022/10/05 02:39:24;;;;;;;19.52;8.25;;;;;;;;;;5047857;28;20040;-77
2022/10/05 02:41:56;;;;;;;23.67;9.02;;;;;;;;;;5043772;28;20025;-77
2022/10/05 02:44:32;;;;;;;14.68;7.82;;;;;;;;;;5043563;28;20027;-78
2022/10/05 02:47:02;;;;;;;14.52;7.80;;;;;;;;;;5035358;28;20033;-77
2022/10/05 02:49:43;;;;;;;16.65;7.82;;;;;;;;;;5038427;28;20032;-77
2022/10/05 02:52:19;;;;;;;23.00;8.80;;;;;;;;;;5023346;28;20025;-77
2022/10/05 02:54:45;;;;;;;19.92;8.35;;;;;;;;;;5034916;28;20486;-78
2022/10/05 02:57:16;;;;;;;21.27;8.35;;;;;;;;;;5016715;28;20030;-76
2022/10/05 02:59:48;;;;;;;24.20;8.45;;;;;;;;;;5038476;28;20454;-77
2022/10/05 03:02:20;;;;;;;17.13;8.48;;;;;;;;;;5039769;28;20028;-78
2022/10/05 03:04:55;;;;;;;25.35;8.90;;;;;;;;;;5041943;28;20371;-77
2022/10/05 03:07:37;;;;;;;20.83;8.60;;;;;;;;;;5042022;28;20032;-78
2022/10/05 03:10:11;;;;;;;14.15;7.47;;;;;;;;;;5041367;28;20140;-77
2022/10/05 03:12:37;;;;;;;27.73;8.93;;;;;;;;;;5048927;28;20033;-78
2022/10/05 03:15:24;;;;;;;22.92;9.02;;;;;;;;;;5044897;28;20040;-79
2022/10/05 03:18:05;;;;;;;28.80;7.60;;;;;;;;;;5043879;28;20537;-76
2022/10/05 03:20:40;;;;;;;18.23;8.23;;;;;;;;;;5040127;28;20025;-78
2022/10/05 03:23:09;;;;;;;26.00;8.70;;;;;;;;;;5040741;28;20461;-77
2022/10/05 03:25:50;;;;;;;24.45;8.88;;;;;;;;;;5039745;28;20254;-78
2022/10/05 03:28:19;;;;;;;23.15;8.25;;;;;;;;;;5039689;28;20109;-78
2022/10/05 03:30:55;;;;;;;23.15;8.38;;;;;;;;;;5020799;28;20037;-76
2022/10/05 03:33:27;;;;;;;16.25;8.30;;;;;;;;;;5036958;28;20406;-77
2022/10/05 03:36:16;;;;;;;19.50;9.00;;;;;;;;;;5020059;28;20555;-78
2022/10/05 03:39:06;;;;;;;16.02;8.35;;;;;;;;;;5036310;28;20109;-76
2022/10/05 03:41:32;;;;;;;20.60;8.38;;;;;;;;;;5034435;28;20028;-75
2022/10/05 03:44:10;;;;;;;19.42;8.95;;;;;;;;;;5034428;28;20104;-76
2022/10/05 03:46:57;;;;;;;25.75;9.48;;;;;;;;;;5033746;28;20095;-77
2022/10/05 03:49:39;;;;;;;19.70;8.82;;;;;;;;;;5034090;28;20056;-76
2022/10/05 03:52:11;;;;;;;26.77;8.95;;;;;;;;;;5033890;28;20393;-76
2022/10/05 03:54:45;;;;;;;20.13;7.97;;;;;;;;;;5037045;28;20025;-73
2022/10/05 03:57:15;;;;;;;22.83;9.52;;;;;;;;;;5040567;28;20022;-75
2022/10/05 03:59:51;;;;;;;20.00;9.00;;;;;;;;;;5021364;28;20018;-74
2022/10/05 04:02:28;;;;;;;19.90;9.25;;;;;;;;;;5039196;28;20022;-76
2022/10/05 04:05:21;;;;;;;16.95;8.35;;;;;;;;;;5036743;28;20056;-77
2022/10/05 04:07:51;;;;;;;17.73;8.40;;;;;;;;;;5034455;28;20061;-75
2022/10/05 04:10:21;;;;;;;17.83;8.80;;;;;;;;;;5041131;28;20029;-76
2022/10/05 04:12:50;;;;;;;23.50;9.15;;;;;;;;;;5032748;28;20067;-76
2022/10/05 04:15:16;;;;;;;24.40;9.18;;;;;;;;;;5037270;28;20079;-74
2022/10/05 04:17:43;;;;;;;16.95;8.45;;;;;;;;;;5036635;28;20034;-75
2022/10/05 04:20:25;;;;;;;20.13;9.77;;;;;;;;;;5048698;28;20056;-73
2022/10/05 04:22:51;;;;;;;19.83;9.38;;;;;;;;;;5048892;28;20083;-73
2022/10/05 04:25:20;;;;;;;20.58;8.82;;;;;;;;;;5053422;28;20045;-74
2022/10/05 04:28:04;;;;;;;19.60;9.68;;;;;;;;;;5056892;28;20026;-73
2022/10/05 04:30:31;;;;;;;21.60;9.32;;;;;;;;;;5058278;28;20022;-74
2022/10/05 04:32:58;;;;;;;23.98;10.10;;;;;;;;;;5057946;28;20379;-76
2022/10/05 04:35:24;;;;;;;22.55;8.95;;;;;;;;;;5051894;28;20029;-77
2022/10/05 04:37:50;;;;;;;21.30;9.73;;;;;;;;;;5040798;28;20029;-77
2022/10/05 04:40:27;;;;;;;19.92;9.15;;;;;;;;;;5039504;28;20103;-76
2022/10/05 04:42:56;;;;;;;20.00;9.10;;;;;;;;;;5040449;28;20025;-77
2022/10/05 04:45:36;;;;;;;22.38;9.70;;;;;;;;;;5028315;28;20026;-77
2022/10/05 04:48:14;;;;;;;26.23;10.13;;;;;;;;;;5044404;28;20470;-77
2022/10/05 04:50:59;;;;;;;16.27;9.80;;;;;;;;;;5042577;28;20036;-76
2022/10/05 04:53:30;;;;;;;23.50;9.95;;;;;;;;;;5037256;28;20029;-77
2022/10/05 04:55:59;;;;;;;21.60;9.43;;;;;;;;;;5045131;28;20027;-74
2022/10/05 04:58:44;;;;;;;26.00;9.80;;;;;;;;;;5046507;28;20118;-76
2022/10/05 05:01:10;;;;;;;20.10;10.40;;;;;;;;;;5042412;28;20036;-77
2022/10/05 05:03:53;;;;;;;16.42;9.63;;;;;;;;;;5037827;28;20029;-77
2022/10/05 05:06:19;;;;;;;25.98;10.30;;;;;;;;;;5038145;28;20359;-76
2022/10/05 05:09:04;;;;;;;26.65;10.43;;;;;;;;;;5038878;28;20099;-77
2022/10/05 05:11:56;;;;;;;26.42;10.23;;;;;;;;;;5038953;28;20029;-77
2022/10/05 05:14:42;;;;;;;21.15;9.93;;;;;;;;;;5037026;28;20033;-78
2022/10/05 05:17:16;;;;;;;22.60;10.70;;;;;;;;;;5001014;28;20053;-77
2022/10/05 05:20:01;;;;;;;25.85;11.23;;;;;;;;;;5039852;28;20029;-79
2022/10/05 05:22:39;;;;;;;27.05;11.63;;;;;;;;;;5038801;28;20032;-77
2022/10/05 05:25:24;;;;;;;27.50;11.00;;;;;;;;;;5039460;28;20044;-78
2022/10/05 05:27:59;;;;;;;23.90;11.23;;;;;;;;;;5021682;28;20029;-77
2022/10/05 05:30:37;;;;;;;21.27;11.30;;;;;;;;;;5022172;28;20071;-78
2022/10/05 05:33:09;;;;;;;25.95;11.60;;;;;;;;;;5040817;28;20079;-79
2022/10/05 05:35:35;;;;;;;23.17;11.20;;;;;;;;;;5040711;28;20494;-78
2022/10/05 05:38:21;;;;;;;30.00;11.20;;;;;;;;;;5040761;28;20036;-78
2022/10/05 05:41:17;;;;;;;22.30;11.52;;;;;;;;;;5043912;28;20095;-79
2022/10/05 05:43:55;;;;;;;23.02;11.43;;;;;;;;;;5018063;28;20418;-78
2022/10/05 05:46:21;;;;;;;26.10;10.93;;;;;;;;;;5035825;28;20107;-80
2022/10/05 05:48:48;;;;;;;28.15;12.88;;;;;;;;;;5039913;28;20022;-79
2022/10/05 05:51:17;;;;;;;25.25;12.32;;;;;;;;;;5040090;28;20025;-78
2022/10/05 05:53:49;;;;;;;26.88;12.60;;;;;;;;;;5039351;28;20027;-79
2022/10/05 05:56:25;;;;;;;30.67;12.60;;;;;;;;;;5038594;28;20025;-80
2022/10/05 05:59:00;;;;;;;23.27;12.48;;;;;;;;;;5039158;28;20467;-74
2022/10/05 06:01:32;;;;;;;21.95;11.55;;;;;;;;;;5039992;28;20030;-76
2022/10/05 06:04:01;;;;;;;23.55;12.27;;;;;;;;;;5043576;28;20025;-78
2022/10/05 06:06:31;;;;;;;27.00;12.18;;;;;;;;;;5042283;28;20041;-78
2022/10/05 06:09:01;;;;;;;23.60;11.57;;;;;;;;;;5037719;28;20021;-77
2022/10/05 06:11:40;;;;;;;30.77;12.27;;;;;;;;;;5038537;28;20385;-77
2022/10/05 06:14:12;;;;;;;26.23;11.77;;;;;;;;;;5037411;28;20028;-76
2022/10/05 06:16:40;;;;;;;28.98;12.82;;;;;;;;;;5036012;28;20025;-77
2022/10/05 06:19:11;;;;;;;22.30;12.32;;;;;;;;;;5039096;28;20482;-76
2022/10/05 06:21:49;;;;;;;24.95;13.13;;;;;;;;;;5034870;28;20033;-77
2022/10/05 06:24:18;;;;;;;30.52;12.65;;;;;;;;;;5037584;28;20026;-75
2022/10/05 06:27:03;;;;;;;33.72;12.88;;;;;;;;;;5037360;28;20063;-73
2022/10/05 06:29:40;;;;;;;28.88;13.73;;;;;;;;;;5035978;28;20044;-72
2022/10/05 06:32:14;;;;;;;25.98;12.88;;;;;;;;;;5035085;28;20374;-73
2022/10/05 06:34:56;;;;;;;31.25;13.55;;;;;;;;;;5039112;28;20021;-76
2022/10/05 06:37:27;;;;;;;28.83;13.45;;;;;;;;;;5037332;28;20117;-73
2022/10/05 06:40:12;;;;;;;37.40;14.10;;;;;;;;;;5036846;28;20056;-74
2022/10/05 06:42:44;;;;;;;32.78;13.13;;;;;;;;;;5038314;28;20036;-72
2022/10/05 06:45:29;;;;;;;26.33;12.40;;;;;;;;;;5049600;28;20021;-73
2022/10/05 06:48:04;;;;;;;33.05;15.00;;;;;;;;;;5033854;28;20021;-74
2022/10/05 06:50:38;;;;;;;26.45;13.20;;;;;;;;;;5035266;28;20053;-74
2022/10/05 06:53:22;;;;;;;30.95;12.93;;;;;;;;;;5051636;28;20081;-75
2022/10/05 06:56:07;;;;;;;20.85;12.55;;;;;;;;;;5047827;28;20041;-75
2022/10/05 06:58:43;;;;;;;27.35;12.65;;;;;;;;;;5049775;28;20116;-74
2022/10/05 07:01:18;;;;;;;26.50;13.30;;;;;;;;;;5033013;28;20038;-76
2022/10/05 07:03:59;;;;;;;26.05;13.00;;;;;;;;;;5050749;28;20029;-75
2022/10/05 07:06:42;;;;;;;20.50;12.50;;;;;;;;;;5043319;28;20052;-76
2022/10/05 07:09:14;;;;;;;24.50;12.85;;;;;;;;;;5042161;28;20031;-74
2022/10/05 07:11:49;;;;;;;26.08;12.85;;;;;;;;;;5040626;28;20025;-74
2022/10/05 07:14:27;;;;;;;25.50;13.38;;;;;;;;;;5040255;28;20503;-75
2022/10/05 07:16:59;;;;;;;25.75;14.02;;;;;;;;;;5039043;28;20072;-74
2022/10/05 07:19:31;;;;;;;24.45;12.88;;;;;;;;;;5038000;28;20077;-74
2022/10/05 07:21:57;;;;;;;23.23;13.10;;;;;;;;;;5037244;28;20083;-73
2022/10/05 07:24:23;;;;;;;32.33;15.32;;;;;;;;;;5038073;28;20475;-74
2022/10/05 07:27:09;;;;;;;30.50;13.02;;;;;;;;;;5020731;28;20482;-75
2022/10/05 07:29:38;;;;;;;24.05;12.48;;;;;;;;;;5022096;28;20059;-74
2022/10/05 07:32:04;;;;;;;32.80;14.23;;;;;;;;;;5039948;28;20431;-75
2022/10/05 07:34:39;;;;;;;22.95;12.02;;;;;;;;;;5040983;28;20068;-73
2022/10/05 07:39:56;;;;;;;29.98;12.80;;;;;;;;;;5037228;28;19912;-73
2022/10/05 07:42:39;;;;;;;26.65;12.75;;;;;;;;;;5038240;28;20521;-74
2022/10/05 07:45:14;;;;;;;30.05;13.25;;;;;;;;;;5040274;28;20040;-73
2022/10/05 07:47:43;;;;;;;25.52;13.60;;;;;;;;;;5019816;28;20029;-72
2022/10/05 07:50:18;;;;;;;28.17;12.27;;;;;;;;;;5040270;28;20475;-74
2022/10/05 07:53:04;;;;;;;24.58;13.60;;;;;;;;;;5037364;28;20026;-75
2022/10/05 07:55:31;;;;;;;20.88;11.60;;;;;;;;;;5034605;28;20104;-74
2022/10/05 07:58:16;;;;;;;25.30;12.50;;;;;;;;;;5050408;28;20119;-74
2022/10/05 08:00:42;;;;;;;;;;;;;;;;;;5052519;28;20026;-75
2022/10/05 08:03:17;;;;;;;31.10;13.13;;;;;;;;;;5053982;28;19905;-74
2022/10/05 08:05:42;;;;;;;;;;;;;;;;;;5055596;28;20009;-74
2022/10/05 08:08:30;;;;;;;23.08;12.73;;;;;;;;;;5049612;28;19905;-74
2022/10/05 08:11:01;;;;;;;26.50;12.88;;;;;;;;;;5036046;28;20033;-73
2022/10/05 08:13:27;;;;;;;29.63;12.27;;;;;;;;;;5034607;28;20033;-73
2022/10/05 08:15:56;;;;;;;24.45;12.13;;;;;;;;;;5016089;28;20243;-74
2022/10/05 08:18:40;;;;;;;22.15;11.68;;;;;;;;;;5036350;28;20060;-75
2022/10/05 08:21:10;;;;;;;27.80;12.93;;;;;;;;;;5034485;28;20064;-78
2022/10/05 08:23:43;;;;;;;22.63;11.55;;;;;;;;;;5040047;28;20021;-76
2022/10/05 08:26:16;;;;;;;25.25;12.23;;;;;;;;;;5036632;28;20040;-74
2022/10/05 08:29:00;;;;;;;29.45;11.77;;;;;;;;;;5033440;28;20122;-76
2022/10/05 08:31:28;;;;;;;21.33;11.15;;;;;;;;;;5033432;28;20036;-73
2022/10/05 08:34:00;;;;;;;21.15;11.38;;;;;;;;;;5033362;28;20502;-74
2022/10/05 08:36:49;;;;;;;29.48;12.55;;;;;;;;;;5033261;28;20048;-76
2022/10/05 08:39:18;;;;;;;23.02;11.98;;;;;;;;;;4988068;28;20064;-74
2022/10/05 08:41:51;;;;;;;19.35;11.43;;;;;;;;;;5015946;28;20029;-73
2022/10/05 08:44:36;;;;;;;33.67;12.15;;;;;;;;;;5034316;28;20041;-75
2022/10/05 08:47:05;;;;;;;22.08;12.05;;;;;;;;;;5033556;28;20037;-76
2022/10/05 08:49:43;;;;;;;22.42;11.73;;;;;;;;;;5034406;28;20033;-75
2022/10/05 08:52:20;;;;;;;23.65;10.90;;;;;;;;;;5033762;28;20112;-73
2022/10/05 08:54:55;;;;;;;35.70;13.95;;;;;;;;;;5032486;28;20041;-74
2022/10/05 08:57:38;;;;;;;24.73;12.45;;;;;;;;;;5033270;28;20029;-73
2022/10/05 09:00:20;;;;;;;27.52;11.75;;;;;;;;;;5033453;28;20390;-73
2022/10/05 09:03:08;;;;;;;26.48;11.82;;;;;;;;;;5033253;28;20029;-75
2022/10/05 09:05:55;;;;;;;26.73;12.85;;;;;;;;;;5034223;28;20022;-76
2022/10/05 09:08:39;;;;;;;22.75;12.13;;;;;;;;;;5041596;28;20018;-75
2022/10/05 09:11:05;;;;;;;22.98;11.68;;;;;;;;;;5043186;28;20030;-80
2022/10/05 09:13:37;;;;;;;25.77;11.63;;;;;;;;;;5034881;28;20025;-75
2022/10/05 09:16:22;;;;;;;19.83;10.52;;;;;;;;;;5034147;28;20026;-74
2022/10/05 09:19:13;;;;;;;17.70;10.75;;;;;;;;;;5033942;28;20021;-75
2022/10/05 09:21:54;;;;;;;23.45;11.00;;;;;;;;;;5033329;28;20509;-76
2022/10/05 09:24:40;;;;;;;18.65;10.27;;;;;;;;;;5032290;28;20082;-75
2022/10/05 09:27:09;;;;;;;19.42;9.82;;;;;;;;;;4982638;28;20045;-74
2022/10/05 09:29:51;;;;;;;14.82;9.73;;;;;;;;;;5036828;28;20478;-75
2022/10/05 09:32:17;;;;;;;14.48;8.43;;;;;;;;;;5033325;28;20033;-75
2022/10/05 09:34:52;;;;;;;16.27;9.27;;;;;;;;;;5032543;28;20021;-75
2022/10/05 09:37:33;;;;;;;24.63;9.40;;;;;;;;;;5032079;28;20115;-74
2022/10/05 09:39:59;;;;;;;17.77;9.52;;;;;;;;;;5032731;28;20014;-75
2022/10/05 09:42:33;;;;;;;22.15;9.93;;;;;;;;;;5014989;28;20490;-75
2022/10/05 09:45:09;;;;;;;18.60;10.00;;;;;;;;;;5033431;28;20026;-76
2022/10/05 09:47:43;;;;;;;20.95;10.50;;;;;;;;;;5034692;28;20088;-75
2022/10/05 09:50:09;;;;;;;;;;;;;;;;;;5035511;28;20109;-75
2022/10/05 09:52:41;;;;;;;19.85;9.15;;;;;;;;;;5033477;28;19963;-76
2022/10/05 09:55:31;;;;;;;19.10;10.27;;;;;;;;;;5034230;28;20032;-77
2022/10/05 09:58:03;;;;;;;16.75;11.43;;;;;;;;;;5015942;28;20044;-74
2022/10/05 10:00:35;;;;;;;16.02;10.05;;;;;;;;;;5034368;28;20485;-75
2022/10/05 10:03:01;;;;;;;17.58;9.90;;;;;;;;;;5036279;28;20041;-75
2022/10/05 10:05:55;;;;;;;19.98;10.00;;;;;;;;;;5034279;28;20017;-74
2022/10/05 10:08:41;;;;;;;16.60;9.50;;;;;;;;;;5037417;28;20323;-75
2022/10/05 10:11:10;;;;;;;12.13;8.80;;;;;;;;;;5020987;28;20063;-73
2022/10/05 10:13:55;;;;;;;13.45;8.85;;;;;;;;;;5038514;28;20026;-77
2022/10/05 10:16:39;;;;;;;16.60;9.30;;;;;;;;;;5036082;28;20021;-77
2022/10/05 10:19:17;;;;;;;24.10;10.50;;;;;;;;;;5037508;28;20163;-75
2022/10/05 10:21:44;;;;;;;15.95;9.77;;;;;;;;;;5038679;28;20036;-76
2022/10/05 10:24:36;;;;;;;16.00;9.65;;;;;;;;;;5037540;28;20022;-75
2022/10/05 10:27:08;;;;;;;18.60;9.70;;;;;;;;;;5033221;28;20467;-75
2022/10/05 10:29:53;;;;;;;20.50;9.90;;;;;;;;;;5037180;28;20107;-74
2022/10/05 10:32:28;;;;;;;19.40;10.00;;;;;;;;;;5037616;28;20029;-77
2022/10/05 10:34:57;;;;;;;16.48;9.85;;;;;;;;;;5019147;28;20052;-76
2022/10/05 10:37:42;;;;;;;20.42;9.45;;;;;;;;;;5039303;28;20112;-80
2022/10/05 10:40:08;;;;;;;;;;;;;;;;;;5023201;28;20026;-76
2022/10/05 10:42:52;;;;;;;14.45;9.10;;;;;;;;;;5038290;28;19995;-77
2022/10/05 10:45:23;;;;;;;16.98;8.50;;;;;;;;;;5037605;28;20032;-77
2022/10/05 10:47:55;;;;;;;19.25;9.88;;;;;;;;;;5020856;28;20041;-78
2022/10/05 10:50:51;;;;;;;21.58;9.98;;;;;;;;;;5039894;28;20041;-78
2022/10/05 10:53:22;;;;;;;19.48;9.10;;;;;;;;;;5023219;28;20033;-79
2022/10/05 10:56:00;;;;;;;15.25;9.00;;;;;;;;;;5043153;28;20017;-76
2022/10/05 10:58:45;;;;;;;16.05;9.10;;;;;;;;;;5055584;28;20029;-77
2022/10/05 11:01:30;;;;;;;18.83;9.20;;;;;;;;;;5053063;28;20025;-81
2022/10/05 11:03:56;;;;;;;17.60;9.10;;;;;;;;;;5046057;28;20025;-78
2022/10/05 11:06:28;;;;;;;15.88;8.60;;;;;;;;;;5045639;28;20053;-77
2022/10/05 11:08:53;;;;;;;19.55;8.57;;;;;;;;;;5027518;28;20028;-77
2022/10/05 11:11:22;;;;;;;32.55;16.00;;;;;;;;;;5038469;28;20025;-76
2022/10/05 11:14:09;;;;;;;15.40;8.55;;;;;;;;;;5020110;28;20099;-76
2022/10/05 11:16:52;;;;;;;17.20;9.20;;;;;;;;;;5036669;28;20025;-78
2022/10/05 11:19:38;;;;;;;14.50;8.30;;;;;;;;;;5036262;28;20048;-75
2022/10/05 11:22:04;;;;;;;14.80;8.45;;;;;;;;;;5039466;28;20048;-75
2022/10/05 11:24:38;;;;;;;16.15;8.20;;;;;;;;;;5038337;28;20026;-77
2022/10/05 11:27:20;;;;;;;20.98;7.97;;;;;;;;;;5041953;28;20087;-77
2022/10/05 11:29:50;;;;;;;13.07;7.80;;;;;;;;;;5025943;28;20360;-77
2022/10/05 11:32:35;;;;;;;16.45;8.10;;;;;;;;;;5029403;28;20036;-80
2022/10/05 11:35:07;;;;;;;14.88;7.30;;;;;;;;;;5039874;28;20029;-76
2022/10/05 11:37:36;;;;;;;17.73;7.80;;;;;;;;;;5038154;28;20109;-77
2022/10/05 11:40:14;;;;;;;12.68;6.72;;;;;;;;;;5038904;28;20017;-75
2022/10/05 11:42:59;;;;;;;16.02;6.72;;;;;;;;;;5020660;28;20085;-78
2022/10/05 11:45:50;;;;;;;18.08;6.80;;;;;;;;;;5039124;28;20022;-75
2022/10/05 11:48:15;;;;;;;14.23;6.70;;;;;;;;;;5040398;28;20085;-77
2022/10/05 11:50:53;;;;;;;10.20;6.13;;;;;;;;;;5040732;28;20053;-77
2022/10/05 11:53:31;;;;;;;17.33;6.88;;;;;;;;;;5040489;28;20064;-77
2022/10/05 11:55:57;;;;;;;12.23;6.15;;;;;;;;;;5025827;28;20037;-78
2022/10/05 11:58:25;;;;;;;17.17;6.63;;;;;;;;;;5035468;28;20387;-77
2022/10/05 12:01:15;;;;;;;13.40;6.50;;;;;;;;;;5035521;28;20033;-78
2022/10/05 12:03:45;;;;;;;11.90;6.28;;;;;;;;;;5035712;28;20029;-77
2022/10/05 12:06:14;;;;;;;20.70;6.63;;;;;;;;;;5019082;28;20021;-78
2022/10/05 12:09:03;;;;;;;8.95;6.03;;;;;;;;;;5034955;28;20029;-77
2022/10/05 12:11:41;;;;;;;15.48;6.55;;;;;;;;;;5037714;28;20109;-76
2022/10/05 12:14:13;;;;;;;14.45;6.00;;;;;;;;;;5035790;28;20086;-77
2022/10/05 12:17:00;;;;;;;13.73;5.40;;;;;;;;;;5021702;28;20063;-73
2022/10/05 12:19:30;;;;;;;8.82;5.03;;;;;;;;;;5039249;28;20120;-77
2022/10/05 12:22:02;;;;;;;10.60;5.38;;;;;;;;;;5036452;28;20049;-77
2022/10/05 12:27:11;;;;;;;10.38;4.80;;;;;;;;;;5048322;23;20064;-72
2022/10/05 12:29:43;;;;;;;8.68;4.78;;;;;;;;;;5034593;28;20041;-78
2022/10/05 12:32:10;;;;;;;9.05;4.75;;;;;;;;;;5037427;28;20033;-74
2022/10/05 12:35:10;;;;;;;11.77;4.32;;;;;;;;;;5033232;28;20069;-71
2022/10/05 12:37:45;;;;;;;10.65;5.88;;;;;;;;;;4963825;28;20490;-73
2022/10/05 12:40:23;;;;;;;11.43;4.65;;;;;;;;;;5013155;28;20478;-72
2022/10/05 12:43:00;;;;;;;9.55;4.60;;;;;;;;;;5013726;28;20100;-73
2022/10/05 12:45:46;;;;;;;13.43;4.88;;;;;;;;;;5014875;28;20471;-73
2022/10/05 12:48:12;;;;;;;;;;;;;;;;;;5014630;28;20029;-73
2022/10/05 12:50:41;;;;;;;11.00;4.53;;;;;;;;;;5013009;28;19906;-73
2022/10/05 12:53:14;;;;;;;10.55;4.85;;;;;;;;;;5013084;28;20018;-73
2022/10/05 12:55:43;;;;;;;8.32;4.75;;;;;;;;;;5012650;28;20157;-72
2022/10/05 12:58:12;;;;;;;10.95;4.60;;;;;;;;;;5013251;28;20426;-73
2022/10/05 13:00:50;;;;;;;12.48;4.40;;;;;;;;;;5013847;28;20022;-73
2022/10/05 13:03:29;;;;;;;10.23;4.05;;;;;;;;;;4995338;28;20025;-72
2022/10/05 13:06:02;;;;;;;10.30;4.32;;;;;;;;;;5012467;28;20026;-72
2022/10/05 13:08:36;;;;;;;9.07;3.97;;;;;;;;;;5013635;28;20029;-75
2022/10/05 13:11:15;;;;;;;11.48;4.07;;;;;;;;;;5015665;28;20030;-71
2022/10/05 13:13:47;;;;;;;7.65;4.40;;;;;;;;;;5014152;28;20105;-73
2022/10/05 13:16:32;;;;;;;9.55;3.97;;;;;;;;;;5012250;28;20399;-71
2022/10/05 13:19:17;;;;;;;6.03;4.05;;;;;;;;;;5011026;28;20022;-72
2022/10/05 13:21:42;;;;;;;;;;;;;;;;;;5010560;28;20083;-72
2022/10/05 13:24:21;;;;;;;9.10;3.92;;;;;;;;;;5016130;28;19906;-72
2022/10/05 13:26:52;;;;;;;10.55;4.47;;;;;;;;;;5012231;28;20390;-72
2022/10/05 13:29:21;;;;;;;8.68;4.35;;;;;;;;;;5013938;28;20030;-72
2022/10/05 13:31:53;;;;;;;8.98;4.28;;;;;;;;;;5014831;28;20026;-72
2022/10/05 13:34:28;;;;;;;13.20;5.00;;;;;;;;;;5027538;28;20045;-71
2022/10/05 13:36:59;;;;;;;12.13;3.97;;;;;;;;;;5034249;28;20112;-71
2022/10/05 13:39:39;;;;;;;12.38;4.28;;;;;;;;;;5017269;28;20033;-71
2022/10/05 13:42:09;;;;;;;9.18;4.45;;;;;;;;;;5034346;28;20036;-72
2022/10/05 13:44:47;;;;;;;16.17;4.32;;;;;;;;;;5035548;28;20030;-71
2022/10/05 13:47:27;;;;;;;8.40;4.15;;;;;;;;;;5004733;28;20116;-72
2022/10/05 13:49:56;;;;;;;10.95;3.70;;;;;;;;;;5012846;28;20026;-72
2022/10/05 13:52:46;;;;;;;9.93;4.38;;;;;;;;;;5013581;28;20022;-71
2022/10/05 13:55:20;;;;;;;9.70;4.13;;;;;;;;;;4998686;28;20108;-72
2022/10/05 13:57:45;;;;;;;6.93;4.15;;;;;;;;;;5014946;28;20061;-73
2022/10/05 14:00:15;;;;;;;11.25;4.70;;;;;;;;;;5015127;28;20029;-71
2022/10/05 14:02:43;;;;;;;8.07;4.13;;;;;;;;;;5012724;28;20455;-72
2022/10/05 14:05:15;;;;;;;9.63;3.65;;;;;;;;;;5012642;28;20038;-72
2022/10/05 14:07:47;;;;;;;8.20;4.13;;;;;;;;;;5013712;28;20442;-72
2022/10/05 14:10:14;;;;;;;14.18;3.90;;;;;;;;;;5013684;28;20034;-74
2022/10/05 14:12:44;;;;;;;10.10;3.80;;;;;;;;;;5019896;28;20361;-71
2022/10/05 14:15:21;;;;;;;10.90;3.60;;;;;;;;;;5016344;28;20026;-73
2022/10/05 14:17:51;;;;;;;11.10;3.70;;;;;;;;;;5018857;28;20525;-72
2022/10/05 14:20:20;;;;;;;9.32;4.07;;;;;;;;;;5020367;28;20026;-72
2022/10/05 14:22:50;;;;;;;9.90;3.50;;;;;;;;;;5001875;28;20026;-73
2022/10/05 14:25:18;;;;;;;10.95;3.65;;;;;;;;;;5018966;28;20030;-73
2022/10/05 14:27:53;;;;;;;8.68;4.00;;;;;;;;;;5017410;28;20032;-73
2022/10/05 14:30:22;;;;;;;8.30;3.55;;;;;;;;;;5016633;28;20445;-73
2022/10/05 14:32:50;;;;;;;7.95;3.92;;;;;;;;;;5016532;28;20026;-73
2022/10/05 14:35:20;;;;;;;7.82;3.65;;;;;;;;;;5018895;28;20069;-71
2022/10/05 14:37:49;;;;;;;8.13;3.60;;;;;;;;;;5019733;28;20044;-73
2022/10/05 14:40:22;;;;;;;9.18;3.60;;;;;;;;;;5014907;28;20332;-73
2022/10/05 14:42:48;;;;;;;9.90;3.38;;;;;;;;;;5011981;28;20026;-72
2022/10/05 14:45:19;;;;;;;7.70;3.40;;;;;;;;;;5012022;28;20034;-72
2022/10/05 14:48:01;;;;;;;6.90;3.22;;;;;;;;;;5011991;28;20434;-72
2022/10/05 14:50:30;;;;;;;6.88;3.63;;;;;;;;;;5013095;28;20057;-73
2022/10/05 14:52:59;;;;;;;9.05;3.30;;;;;;;;;;5012627;28;20497;-73
2022/10/05 14:55:45;;;;;;;10.80;4.18;;;;;;;;;;5001909;28;20084;-75
2022/10/05 14:58:17;;;;;;;14.57;5.57;;;;;;;;;;5018256;28;20041;-71
2022/10/05 15:01:00;;;;;;;8.35;3.90;;;;;;;;;;5017078;28;20036;-74
2022/10/05 15:03:32;;;;;;;9.43;4.07;;;;;;;;;;5019844;28;20092;-73
2022/10/05 15:06:00;;;;;;;9.27;3.63;;;;;;;;;;5018892;28;20102;-73
2022/10/05 15:08:40;;;;;;;8.85;3.97;;;;;;;;;;5017997;28;20502;-74
2022/10/05 15:11:07;;;;;;;6.28;3.58;;;;;;;;;;5015408;28;20025;-73
2022/10/05 15:13:37;;;;;;;12.05;3.72;;;;;;;;;;5015130;28;20021;-72
2022/10/05 15:16:05;;;;;;;16.17;3.90;;;;;;;;;;5015625;28;20498;-73
2022/10/05 15:18:44;;;;;;;12.20;6.22;;;;;;;;;;5017561;28;20218;-72